Time;durP1;ratioP1;P1;durP2;ratioP2;P2;SDS_P1;SDS_P2;PMS_P1;PMS_P2;Temp;Humidity;BMP_temperature;BMP_pressure;BME280_temperature;BME280_humidity;BME280_pressure;Samples;Min_cycle;Max_cycle;Signal;HPM_P1;HPM_P2
2022/07/25 00:00:10;;;;;;;9.32;7.68;;;19.40;99.90;;;;;;5089040;28;20257;-52
2022/07/25 00:02:38;;;;;;;9.15;8.25;;;19.30;99.90;;;;;;5087309;28;20204;-52
2022/07/25 00:05:07;;;;;;;10.13;7.90;;;19.30;99.90;;;;;;5089950;28;20200;-52
2022/07/25 00:07:35;;;;;;;8.20;7.40;;;19.30;99.90;;;;;;5088516;28;20236;-52
2022/07/25 00:10:04;;;;;;;9.55;8.48;;;19.20;99.90;;;;;;5089143;28;20684;-52
2022/07/25 00:12:32;;;;;;;8.80;7.88;;;19.20;99.90;;;;;;5088785;28;20208;-52
2022/07/25 00:15:00;;;;;;;9.82;7.72;;;19.20;99.90;;;;;;5089694;28;20236;-52
2022/07/25 00:17:30;;;;;;;9.45;7.78;;;19.20;99.90;;;;;;5092825;28;20224;-52
2022/07/25 00:19:58;;;;;;;9.23;8.20;;;19.10;99.90;;;;;;5080542;28;20209;-52
2022/07/25 00:22:26;;;;;;;9.68;8.10;;;19.10;99.90;;;;;;5092108;28;20254;-52
2022/07/25 00:24:54;;;;;;;9.02;8.13;;;19.10;99.90;;;;;;5092148;28;20641;-52
2022/07/25 00:27:22;;;;;;;8.68;7.80;;;19.10;99.90;;;;;;5092159;28;20227;-52
2022/07/25 00:29:50;;;;;;;8.05;7.35;;;19.00;99.90;;;;;;5092070;28;20932;-52
2022/07/25 00:32:18;;;;;;;9.32;8.05;;;19.00;99.90;;;;;;5092148;28;20270;-52
2022/07/25 00:34:48;;;;;;;9.43;7.68;;;19.00;99.90;;;;;;5091835;28;20900;-52
2022/07/25 00:37:16;;;;;;;8.85;7.95;;;19.00;99.90;;;;;;5091453;28;20275;-52
2022/07/25 00:39:44;;;;;;;9.02;8.07;;;19.00;99.90;;;;;;5092446;28;20216;-52
2022/07/25 00:42:12;;;;;;;8.38;7.63;;;18.90;99.90;;;;;;5091897;28;20269;-52
2022/07/25 00:44:40;;;;;;;9.38;8.13;;;18.90;99.90;;;;;;5092089;28;20717;-52
2022/07/25 00:47:08;;;;;;;8.25;7.45;;;18.90;99.90;;;;;;5089551;28;20228;-52
2022/07/25 00:49:36;;;;;;;8.45;7.65;;;18.90;99.90;;;;;;5092234;28;20271;-52
2022/07/25 00:52:06;;;;;;;8.98;8.07;;;18.80;99.90;;;;;;5091763;28;20208;-52
2022/07/25 00:54:34;;;;;;;9.77;7.80;;;18.80;99.90;;;;;;5091501;28;20285;-52
2022/07/25 00:57:03;;;;;;;9.25;7.93;;;18.80;99.90;;;;;;5091286;28;20708;-52
2022/07/25 00:59:31;;;;;;;9.90;8.27;;;18.80;99.90;;;;;;5091550;28;20661;-52
2022/07/25 01:01:59;;;;;;;9.75;8.30;;;18.70;99.90;;;;;;5091562;28;20212;-52
2022/07/25 01:04:31;;;;;;;8.77;7.65;;;18.70;99.90;;;;;;5091252;28;20200;-52
2022/07/25 01:06:59;;;;;;;8.27;7.47;;;18.70;99.90;;;;;;5091087;28;20228;-52
2022/07/25 01:09:29;;;;;;;9.60;8.02;;;18.70;99.90;;;;;;5090811;28;20212;-51
2022/07/25 01:11:57;;;;;;;8.20;7.38;;;18.70;99.90;;;;;;5091774;28;20200;-51
2022/07/25 01:14:25;;;;;;;9.73;8.68;;;18.60;99.90;;;;;;5091279;28;20644;-52
2022/07/25 01:16:53;;;;;;;9.63;8.30;;;18.60;99.90;;;;;;5090910;28;20220;-52
2022/07/25 01:19:21;;;;;;;9.75;8.75;;;18.60;99.90;;;;;;5084057;28;20259;-52
2022/07/25 01:21:51;;;;;;;9.75;8.70;;;18.60;99.90;;;;;;5086296;28;20670;-52
2022/07/25 01:24:19;;;;;;;8.40;7.60;;;18.60;99.90;;;;;;5091399;28;20197;-52
2022/07/25 01:26:47;;;;;;;8.73;7.88;;;18.50;99.90;;;;;;5090910;28;20228;-52
2022/07/25 01:29:15;;;;;;;8.52;7.53;;;18.50;99.90;;;;;;5091174;28;20250;-52
2022/07/25 01:31:43;;;;;;;11.70;8.13;;;18.50;99.90;;;;;;5090983;28;20262;-52
2022/07/25 01:34:11;;;;;;;8.70;7.55;;;18.40;99.90;;;;;;5090842;28;20677;-51
2022/07/25 01:36:39;;;;;;;8.80;7.93;;;18.40;99.90;;;;;;5090701;28;20237;-51
2022/07/25 01:39:08;;;;;;;8.32;7.53;;;18.40;99.90;;;;;;5090448;28;20254;-51
2022/07/25 01:41:37;;;;;;;8.73;7.82;;;18.40;99.90;;;;;;5091097;28;20216;-52
2022/07/25 01:44:05;;;;;;;10.77;8.18;;;18.30;99.90;;;;;;5090871;28;20208;-52
2022/07/25 01:46:34;;;;;;;9.98;8.45;;;18.30;99.90;;;;;;5088113;28;20259;-51
2022/07/25 01:49:02;;;;;;;8.93;7.97;;;18.30;99.90;;;;;;5090546;28;20282;-51
2022/07/25 01:51:30;;;;;;;9.05;8.15;;;18.30;99.90;;;;;;5090774;28;20253;-52
2022/07/25 01:53:58;;;;;;;9.63;8.63;;;18.20;99.90;;;;;;5090117;28;20752;-52
2022/07/25 01:56:28;;;;;;;8.40;7.70;;;18.20;99.90;;;;;;5080726;28;20228;-52
2022/07/25 01:58:58;;;;;;;8.73;7.88;;;18.20;99.90;;;;;;5084487;28;20208;-52
2022/07/25 02:01:26;;;;;;;9.55;8.55;;;18.20;99.90;;;;;;5058024;28;20228;-52
2022/07/25 02:03:55;;;;;;;9.98;7.95;;;18.20;99.90;;;;;;5082924;28;20246;-51
2022/07/25 02:06:23;;;;;;;8.75;7.80;;;18.20;99.90;;;;;;5090299;28;20693;-52
2022/07/25 02:08:51;;;;;;;8.85;7.97;;;18.20;99.90;;;;;;5090420;28;20238;-52
2022/07/25 02:11:19;;;;;;;8.65;7.85;;;18.20;99.90;;;;;;5090368;28;20734;-52
2022/07/25 02:13:48;;;;;;;9.43;8.52;;;18.20;99.90;;;;;;5090537;28;20234;-51
2022/07/25 02:16:16;;;;;;;9.23;8.32;;;18.20;99.90;;;;;;5089558;28;20693;-52
2022/07/25 02:18:45;;;;;;;8.00;7.30;;;18.20;99.90;;;;;;5090342;28;20269;-51
2022/07/25 02:21:15;;;;;;;9.07;8.18;;;18.20;99.90;;;;;;5082878;28;20323;-51
2022/07/25 02:23:43;;;;;;;8.25;7.38;;;18.10;99.90;;;;;;5089715;28;20720;-51
2022/07/25 02:26:12;;;;;;;9.13;8.00;;;18.10;99.90;;;;;;5090397;28;20347;-52
2022/07/25 02:28:41;;;;;;;8.80;7.90;;;18.10;99.90;;;;;;5076117;28;20216;-52
2022/07/25 02:31:10;;;;;;;9.98;8.45;;;18.10;99.90;;;;;;5089774;28;20249;-51
2022/07/25 02:33:38;;;;;;;8.75;7.95;;;18.10;99.90;;;;;;5089877;28;20227;-52
2022/07/25 02:36:07;;;;;;;9.13;7.53;;;18.10;99.90;;;;;;5090095;28;20224;-51
2022/07/25 02:38:36;;;;;;;9.38;7.63;;;18.10;99.90;;;;;;5089194;28;20763;-52
2022/07/25 02:41:05;;;;;;;9.93;8.25;;;18.10;99.90;;;;;;5089297;28;20208;-51
2022/07/25 02:43:33;;;;;;;9.35;8.25;;;18.00;99.90;;;;;;5090188;28;20261;-51
2022/07/25 02:46:01;;;;;;;8.57;7.50;;;18.00;99.90;;;;;;5082668;28;20274;-53
2022/07/25 02:48:30;;;;;;;8.60;7.80;;;18.00;99.90;;;;;;5089745;28;20616;-52
2022/07/25 02:50:58;;;;;;;10.05;7.90;;;18.00;99.90;;;;;;5089406;28;20244;-51
2022/07/25 02:53:26;;;;;;;10.18;8.77;;;17.90;99.90;;;;;;5089298;28;20261;-52
2022/07/25 02:56:15;;;;;;;9.43;8.52;;;17.90;99.90;;;;;;5080887;28;20238;-52
2022/07/25 02:58:43;;;;;;;9.32;8.18;;;17.90;99.90;;;;;;5089784;28;20208;-52
2022/07/25 03:01:11;;;;;;;8.60;7.80;;;17.80;99.90;;;;;;5085457;28;20205;-52
2022/07/25 03:03:41;;;;;;;9.38;8.15;;;17.80;99.90;;;;;;5089325;28;20204;-52
2022/07/25 03:06:09;;;;;;;8.70;7.90;;;17.80;99.90;;;;;;5089094;28;20228;-52
2022/07/25 03:08:37;;;;;;;9.38;8.45;;;17.80;99.90;;;;;;5088679;28;20742;-51
2022/07/25 03:11:05;;;;;;;9.52;8.55;;;17.80;99.90;;;;;;5089786;28;20208;-52
2022/07/25 03:13:33;;;;;;;9.98;8.98;;;17.80;99.90;;;;;;5089110;28;20563;-52
2022/07/25 03:16:01;;;;;;;9.35;8.27;;;17.80;99.90;;;;;;5089382;28;20232;-52
2022/07/25 03:18:29;;;;;;;9.60;8.70;;;17.80;99.90;;;;;;5088848;28;20212;-52
2022/07/25 03:20:58;;;;;;;9.75;8.85;;;17.80;99.90;;;;;;5088641;28;20253;-52
2022/07/25 03:23:27;;;;;;;10.85;8.43;;;17.80;99.90;;;;;;5088808;28;20204;-52
2022/07/25 03:25:55;;;;;;;9.30;8.40;;;17.70;99.90;;;;;;5088589;28;20220;-52
2022/07/25 03:28:24;;;;;;;9.13;8.18;;;17.70;99.90;;;;;;5089540;28;20220;-52
2022/07/25 03:30:52;;;;;;;9.57;8.63;;;17.70;99.90;;;;;;5088839;28;20261;-52
2022/07/25 03:33:20;;;;;;;11.38;9.10;;;17.70;99.90;;;;;;5089595;28;20208;-52
2022/07/25 03:35:48;;;;;;;10.23;9.15;;;17.60;99.90;;;;;;5088485;28;20213;-52
2022/07/25 03:38:18;;;;;;;9.43;8.50;;;17.60;99.90;;;;;;5082247;28;20205;-52
2022/07/25 03:40:46;;;;;;;11.77;9.52;;;17.60;99.90;;;;;;5074935;28;20634;-52
2022/07/25 03:43:14;;;;;;;10.65;9.40;;;17.60;99.90;;;;;;5086666;28;20200;-52
2022/07/25 03:45:42;;;;;;;10.02;9.02;;;17.60;99.90;;;;;;5080751;28;21065;-52
2022/07/25 03:48:10;;;;;;;10.38;9.25;;;17.60;99.90;;;;;;5089598;28;20686;-52
2022/07/25 03:50:39;;;;;;;12.27;9.00;;;17.70;99.90;;;;;;5091868;28;20208;-53
2022/07/25 03:53:07;;;;;;;10.80;9.63;;;17.70;99.90;;;;;;5092710;28;20201;-52
2022/07/25 03:55:39;;;;;;;10.02;9.02;;;17.70;99.90;;;;;;5092548;28;20719;-52
2022/07/25 03:58:07;;;;;;;10.63;9.60;;;17.60;99.90;;;;;;5092923;28;20200;-52
2022/07/25 04:00:35;;;;;;;10.25;9.13;;;17.60;99.90;;;;;;5093572;28;20254;-52
2022/07/25 04:03:04;;;;;;;10.70;9.60;;;17.70;99.90;;;;;;5091432;28;20209;-52
2022/07/25 04:05:32;;;;;;;11.05;9.65;;;17.70;99.90;;;;;;5092522;28;20232;-52
2022/07/25 04:08:00;;;;;;;10.48;9.32;;;17.60;99.90;;;;;;5092459;28;20212;-52
2022/07/25 04:10:28;;;;;;;13.45;10.38;;;17.60;99.90;;;;;;5092593;28;20209;-52
2022/07/25 04:12:57;;;;;;;10.85;9.85;;;17.70;99.90;;;;;;5092885;28;20266;-52
2022/07/25 04:15:26;;;;;;;11.55;9.73;;;17.70;99.90;;;;;;5092341;28;20204;-52
2022/07/25 04:17:56;;;;;;;11.05;10.02;;;17.70;99.90;;;;;;5092197;28;20212;-52
2022/07/25 04:20:24;;;;;;;10.60;9.50;;;17.80;99.90;;;;;;5092387;28;20313;-52
2022/07/25 04:22:52;;;;;;;13.20;11.02;;;17.80;99.90;;;;;;5092080;28;20241;-52
2022/07/25 04:25:20;;;;;;;11.00;9.90;;;18.10;99.90;;;;;;5092556;28;20204;-52
2022/07/25 04:27:48;;;;;;;10.82;9.75;;;18.90;99.90;;;;;;5092038;28;20224;-52
2022/07/25 04:30:18;;;;;;;10.60;9.50;;;19.50;99.90;;;;;;5091542;28;20285;-52
2022/07/25 04:32:51;;;;;;;11.10;10.00;;;20.10;99.90;;;;;;5092173;28;20212;-52
2022/07/25 04:35:20;;;;;;;10.52;9.52;;;20.50;99.90;;;;;;5092254;28;20204;-52
2022/07/25 04:37:48;;;;;;;10.35;9.25;;;20.90;99.90;;;;;;5088079;28;20274;-52
2022/07/25 04:40:16;;;;;;;10.35;9.35;;;21.20;99.90;;;;;;5085396;28;20673;-51
2022/07/25 04:42:44;;;;;;;10.77;9.73;;;21.60;99.90;;;;;;5091946;28;20691;-52
2022/07/25 04:45:13;;;;;;;10.63;9.52;;;21.90;99.90;;;;;;5082938;28;20212;-52
2022/07/25 04:47:46;;;;;;;9.95;9.05;;;22.10;99.90;;;;;;5090540;28;20379;-52
2022/07/25 04:50:14;;;;;;;12.90;9.63;;;22.50;99.90;;;;;;5091513;28;20208;-52
2022/07/25 04:52:43;;;;;;;9.63;8.68;;;22.80;99.90;;;;;;5091764;28;20639;-52
2022/07/25 04:55:11;;;;;;;10.50;9.48;;;23.10;99.90;;;;;;5092051;28;20265;-52
2022/07/25 04:57:39;;;;;;;10.25;9.25;;;23.30;99.90;;;;;;5091764;28;20712;-51
2022/07/25 05:00:10;;;;;;;10.25;9.35;;;23.40;99.90;;;;;;5091301;28;20216;-52
2022/07/25 05:02:38;;;;;;;10.45;8.88;;;23.30;99.90;;;;;;5090228;28;20200;-52
2022/07/25 05:05:09;;;;;;;9.57;8.75;;;23.50;99.90;;;;;;5091716;28;20204;-52
2022/07/25 05:07:49;;;;;;;9.65;8.75;;;23.90;99.90;;;;;;5090707;28;20228;-52
2022/07/25 05:10:18;;;;;;;9.75;8.82;;;24.50;99.90;;;;;;5091955;28;20223;-52
2022/07/25 05:12:46;;;;;;;10.07;9.07;;;24.80;99.90;;;;;;5091140;28;20208;-52
2022/07/25 05:15:14;;;;;;;9.80;9.00;;;25.00;99.90;;;;;;5091216;28;20204;-52
2022/07/25 05:17:42;;;;;;;9.63;8.55;;;25.30;99.90;;;;;;5090533;28;20232;-52
2022/07/25 05:20:13;;;;;;;9.30;8.40;;;25.70;99.90;;;;;;5062679;28;20219;-52
2022/07/25 05:22:42;;;;;;;9.45;8.65;;;25.90;99.90;;;;;;5065443;28;20608;-52
2022/07/25 05:25:11;;;;;;;9.75;8.77;;;26.30;99.90;;;;;;5070265;28;20225;-52
2022/07/25 05:27:40;;;;;;;8.90;8.13;;;26.80;99.90;;;;;;5066993;28;20270;-49
2022/07/25 05:30:09;;;;;;;9.18;8.38;;;26.90;99.90;;;;;;5090898;28;20208;-50
2022/07/25 05:32:38;;;;;;;8.65;7.90;;;27.00;99.90;;;;;;5091012;28;20208;-52
2022/07/25 05:35:08;;;;;;;8.90;8.13;;;27.10;99.90;;;;;;5090868;28;20216;-52
2022/07/25 05:37:37;;;;;;;10.32;9.00;;;27.20;99.90;;;;;;5087930;28;20285;-52
2022/07/25 05:40:07;;;;;;;9.05;8.20;;;27.60;99.90;;;;;;5081200;28;20230;-52
2022/07/25 05:42:35;;;;;;;9.07;8.18;;;27.80;99.90;;;;;;5090701;28;20273;-53
2022/07/25 05:45:03;;;;;;;9.13;8.30;;;28.10;99.90;;;;;;5090868;28;20204;-53
2022/07/25 05:47:31;;;;;;;9.05;8.20;;;28.20;99.90;;;;;;5086664;28;20232;-52
2022/07/25 05:50:00;;;;;;;10.52;8.30;;;28.40;99.90;;;;;;5090185;28;20672;-52
2022/07/25 05:52:28;;;;;;;8.75;7.95;;;28.50;99.90;;;;;;5086211;28;20205;-52
2022/07/25 05:54:58;;;;;;;9.15;8.30;;;28.50;99.90;;;;;;5090215;28;20212;-52
2022/07/25 05:57:26;;;;;;;8.98;8.15;;;28.60;99.90;;;;;;5090072;28;20277;-52
2022/07/25 05:59:54;;;;;;;8.75;7.95;;;28.80;99.90;;;;;;5090553;28;20209;-53
2022/07/25 06:02:22;;;;;;;8.70;8.00;;;28.80;99.90;;;;;;5088921;28;20630;-52
2022/07/25 06:04:50;;;;;;;8.18;7.57;;;29.00;99.90;;;;;;5090003;28;20832;-52
2022/07/25 06:07:18;;;;;;;8.75;7.95;;;29.40;99.90;;;;;;5085037;28;20270;-52
2022/07/25 06:09:46;;;;;;;9.30;8.40;;;29.40;99.90;;;;;;5087433;28;20906;-53
2022/07/25 06:12:16;;;;;;;8.50;7.70;;;29.50;99.90;;;;;;5089893;28;20208;-52
2022/07/25 06:14:44;;;;;;;8.70;7.93;;;29.60;99.90;;;;;;5090045;28;20204;-53
2022/07/25 06:17:12;;;;;;;8.65;7.95;;;29.50;99.90;;;;;;5089892;28;20224;-52
2022/07/25 06:19:40;;;;;;;9.30;8.40;;;29.90;99.90;;;;;;5089603;28;20559;-52
2022/07/25 06:22:10;;;;;;;8.60;7.90;;;30.10;99.90;;;;;;5077203;28;20265;-53
2022/07/25 06:24:38;;;;;;;9.02;8.13;;;30.30;99.90;;;;;;5089987;28;20685;-52
2022/07/25 06:27:07;;;;;;;9.20;8.35;;;30.40;99.90;;;;;;5087500;28;20225;-52
2022/07/25 06:29:38;;;;;;;8.52;7.72;;;30.30;99.90;;;;;;5082737;28;20219;-52
2022/07/25 06:32:06;;;;;;;9.10;7.97;;;30.60;99.90;;;;;;5089339;28;20677;-53
2022/07/25 06:34:34;;;;;;;8.43;7.72;;;30.90;99.90;;;;;;5090326;28;20767;-50
2022/07/25 06:37:02;;;;;;;9.52;8.60;;;30.90;99.90;;;;;;5091037;28;20281;-52
2022/07/25 06:39:30;;;;;;;8.50;7.70;;;30.90;99.90;;;;;;5079996;28;20226;-49
2022/07/25 06:41:59;;;;;;;8.60;7.80;;;31.00;99.90;;;;;;5091329;28;20208;-50
2022/07/25 06:44:27;;;;;;;8.52;7.72;;;31.10;99.90;;;;;;5090889;28;20726;-50
2022/07/25 06:46:57;;;;;;;8.88;7.88;;;31.40;99.90;;;;;;5085958;28;20253;-50
2022/07/25 06:49:25;;;;;;;9.13;8.23;;;31.50;99.90;;;;;;5089946;28;20204;-50
2022/07/25 06:51:53;;;;;;;9.15;8.35;;;31.80;99.90;;;;;;5090088;28;20564;-50
2022/07/25 06:54:29;;;;;;;8.80;8.10;;;32.00;99.90;;;;;;5091202;28;20211;-51
2022/07/25 06:57:03;;;;;;;8.88;8.05;;;32.10;99.90;;;;;;5088886;28;20252;-50
2022/07/25 06:59:32;;;;;;;10.68;8.77;;;32.20;99.60;;;;;;5090472;28;20215;-53
2022/07/25 07:02:01;;;;;;;9.35;8.45;;;32.30;99.00;;;;;;5088270;28;20219;-53
2022/07/25 07:04:29;;;;;;;9.32;8.45;;;32.50;98.60;;;;;;5089797;28;20669;-53
2022/07/25 07:06:57;;;;;;;8.82;8.07;;;32.50;98.60;;;;;;5089432;28;20289;-53
2022/07/25 07:09:25;;;;;;;8.73;8.02;;;32.50;97.10;;;;;;5079392;28;20200;-52
2022/07/25 07:11:53;;;;;;;8.30;7.60;;;32.60;97.30;;;;;;5075637;28;20203;-52
2022/07/25 07:14:21;;;;;;;8.30;7.70;;;32.70;97.10;;;;;;5076892;28;20204;-52
2022/07/25 07:16:49;;;;;;;8.57;7.88;;;32.60;95.60;;;;;;5088903;28;20273;-52
2022/07/25 07:19:19;;;;;;;8.80;7.90;;;32.60;94.90;;;;;;5088685;28;20308;-53
2022/07/25 07:21:48;;;;;;;9.23;8.05;;;32.70;95.30;;;;;;5076554;28;20204;-53
2022/07/25 07:24:17;;;;;;;9.13;8.23;;;32.60;94.70;;;;;;5081534;28;20219;-53
2022/07/25 07:26:52;;;;;;;8.45;7.75;;;32.70;95.10;;;;;;5093755;28;20233;-53
2022/07/25 07:29:20;;;;;;;8.07;7.28;;;32.70;95.20;;;;;;5090571;28;20195;-53
2022/07/25 07:31:48;;;;;;;8.63;7.70;;;32.90;94.90;;;;;;5086616;28;20207;-53
2022/07/25 07:34:17;;;;;;;7.97;7.32;;;32.80;93.60;;;;;;5093132;28;20698;-52
2022/07/25 07:36:46;;;;;;;8.40;7.72;;;32.70;93.10;;;;;;5092994;28;20227;-53
2022/07/25 07:39:15;;;;;;;9.27;7.82;;;32.70;92.30;;;;;;5086101;28;20569;-53
2022/07/25 07:41:44;;;;;;;8.10;7.30;;;32.90;92.90;;;;;;5093121;28;20293;-53
2022/07/25 07:44:12;;;;;;;8.23;7.43;;;32.90;92.30;;;;;;5093441;28;20203;-53
2022/07/25 07:46:40;;;;;;;8.57;7.60;;;33.00;92.30;;;;;;5079573;28;20224;-52
2022/07/25 07:49:08;;;;;;;7.88;7.18;;;33.10;92.70;;;;;;5092798;28;20358;-53
2022/07/25 07:51:38;;;;;;;7.88;7.25;;;33.10;91.80;;;;;;5092934;28;20314;-53
2022/07/25 07:56:53;;;;;;;8.05;7.40;;;32.90;91.60;;;;;;5092979;28;20256;-53
2022/07/25 07:59:21;;;;;;;8.07;7.35;;;32.70;91.90;;;;;;5092545;28;20768;-53
2022/07/25 08:01:49;;;;;;;8.35;7.53;;;33.00;92.20;;;;;;5083125;28;20209;-52
2022/07/25 08:04:17;;;;;;;8.23;7.43;;;33.10;92.20;;;;;;5090783;28;20665;-52
2022/07/25 08:06:45;;;;;;;8.23;7.43;;;33.10;92.50;;;;;;5069729;28;20235;-53
2022/07/25 08:09:15;;;;;;;8.38;7.68;;;32.90;91.60;;;;;;5076002;28;20200;-53
2022/07/25 08:11:43;;;;;;;8.82;7.57;;;32.90;91.80;;;;;;5082797;28;20204;-53
2022/07/25 08:14:11;;;;;;;8.23;7.50;;;32.60;92.10;;;;;;5091736;28;20277;-54
2022/07/25 08:16:39;;;;;;;8.55;7.78;;;32.50;92.70;;;;;;5084563;28;20232;-53
2022/07/25 08:19:07;;;;;;;9.43;7.80;;;32.00;92.80;;;;;;5092349;28;20276;-52
2022/07/25 08:21:36;;;;;;;8.60;7.70;;;32.00;93.50;;;;;;5092718;28;20238;-52
2022/07/25 08:24:04;;;;;;;9.40;8.50;;;31.80;93.50;;;;;;5092197;28;20668;-52
2022/07/25 08:26:35;;;;;;;9.10;8.20;;;31.90;93.30;;;;;;5091220;28;20224;-53
2022/07/25 08:29:04;;;;;;;9.02;8.18;;;31.80;93.40;;;;;;5092243;28;20203;-53
2022/07/25 08:31:46;;;;;;;8.50;7.80;;;31.80;92.80;;;;;;5087702;28;20204;-52
2022/07/25 08:34:15;;;;;;;8.63;7.82;;;31.60;93.60;;;;;;5074435;28;20205;-52
2022/07/25 08:36:43;;;;;;;9.60;8.13;;;31.60;93.80;;;;;;5071528;28;20229;-52
2022/07/25 08:39:12;;;;;;;9.45;8.00;;;31.60;93.90;;;;;;5089180;28;20220;-52
2022/07/25 08:41:42;;;;;;;8.45;7.78;;;31.50;94.50;;;;;;5057578;28;20213;-53
2022/07/25 08:44:11;;;;;;;8.65;7.75;;;31.50;93.90;;;;;;5056857;28;20213;-53
2022/07/25 08:46:41;;;;;;;8.95;8.18;;;31.50;94.50;;;;;;5070868;28;20282;-52
2022/07/25 08:49:09;;;;;;;8.68;7.88;;;31.50;94.40;;;;;;5071325;28;20212;-53
2022/07/25 08:51:38;;;;;;;9.63;8.40;;;31.60;94.50;;;;;;5071312;28;20224;-52
2022/07/25 08:54:06;;;;;;;9.25;8.30;;;31.50;94.50;;;;;;5070716;28;20209;-52
2022/07/25 08:56:35;;;;;;;8.70;7.80;;;31.50;93.70;;;;;;5071466;28;20286;-52
2022/07/25 08:59:05;;;;;;;8.32;7.60;;;31.50;94.40;;;;;;5071729;28;20224;-52
2022/07/25 09:01:33;;;;;;;9.57;8.40;;;31.60;94.90;;;;;;5070832;28;20265;-52
2022/07/25 09:04:03;;;;;;;8.57;7.78;;;31.60;94.70;;;;;;5071616;28;20205;-52
2022/07/25 09:06:32;;;;;;;11.90;8.18;;;31.70;95.20;;;;;;5070330;28;20232;-52
2022/07/25 09:09:03;;;;;;;8.93;8.13;;;31.80;93.80;;;;;;5071222;28;20262;-52
2022/07/25 09:11:33;;;;;;;12.23;8.18;;;31.90;93.80;;;;;;5071138;28;20672;-52
2022/07/25 09:14:04;;;;;;;8.93;8.10;;;32.00;93.80;;;;;;5071217;28;20258;-52
2022/07/25 09:16:37;;;;;;;9.50;7.82;;;32.00;93.40;;;;;;5070503;28;20601;-52
2022/07/25 09:19:10;;;;;;;8.90;8.07;;;32.10;92.80;;;;;;5070946;28;20237;-52
2022/07/25 09:21:39;;;;;;;8.60;7.90;;;32.10;92.90;;;;;;5071150;28;20205;-53
2022/07/25 09:24:11;;;;;;;10.35;8.00;;;32.10;93.00;;;;;;5068507;28;20204;-53
2022/07/25 09:26:46;;;;;;;8.60;7.75;;;31.90;93.10;;;;;;5067673;28;20876;-52
2022/07/25 09:29:20;;;;;;;9.70;7.75;;;31.80;94.00;;;;;;5076548;28;20203;-53
2022/07/25 09:31:50;;;;;;;8.60;7.90;;;31.90;93.80;;;;;;5090909;28;20200;-52
2022/07/25 09:34:33;;;;;;;8.80;7.90;;;32.00;94.00;;;;;;5088190;28;20901;-53
2022/07/25 09:37:03;;;;;;;9.00;7.60;;;32.20;94.80;;;;;;5066147;28;20237;-52
2022/07/25 09:39:37;;;;;;;8.60;7.90;;;32.30;93.80;;;;;;5080939;28;20227;-52
2022/07/25 09:42:18;;;;;;;8.70;7.72;;;32.20;93.70;;;;;;5090653;28;20215;-51
2022/07/25 09:45:05;;;;;;;8.65;7.95;;;32.10;92.60;;;;;;5090626;28;20686;-52
2022/07/25 09:47:39;;;;;;;8.60;7.80;;;32.10;93.40;;;;;;5062611;28;20624;-52
2022/07/25 09:50:08;;;;;;;8.80;8.02;;;32.00;93.60;;;;;;5088119;28;20277;-52
2022/07/25 09:52:38;;;;;;;8.50;7.78;;;31.80;93.10;;;;;;5086554;28;20205;-52
2022/07/25 09:55:08;;;;;;;8.63;7.93;;;31.80;94.10;;;;;;5086389;28;20607;-52
2022/07/25 09:57:36;;;;;;;8.75;7.95;;;32.10;94.50;;;;;;5090566;28;20236;-52
2022/07/25 10:00:07;;;;;;;8.80;8.00;;;32.20;93.70;;;;;;5089908;28;20228;-52
2022/07/25 10:02:43;;;;;;;8.70;7.80;;;32.20;93.40;;;;;;5082482;28;20201;-52
2022/07/25 10:05:15;;;;;;;8.05;7.25;;;32.00;93.40;;;;;;5090484;28;20208;-53
2022/07/25 10:07:47;;;;;;;8.73;7.93;;;32.00;94.20;;;;;;5090098;28;20263;-52
2022/07/25 10:10:24;;;;;;;7.85;7.15;;;31.90;94.00;;;;;;5090710;28;20209;-53
2022/07/25 10:13:04;;;;;;;7.95;7.25;;;32.00;94.30;;;;;;5090503;28;20273;-52
2022/07/25 10:15:42;;;;;;;9.13;7.32;;;32.20;93.80;;;;;;5086123;28;20652;-53
2022/07/25 10:18:12;;;;;;;10.95;7.18;;;32.60;93.40;;;;;;5090394;28;20207;-52
2022/07/25 10:20:41;;;;;;;8.60;6.90;;;32.60;91.90;;;;;;5090366;28;20232;-52
2022/07/25 10:23:23;;;;;;;8.02;7.25;;;32.80;93.20;;;;;;5090029;28;20208;-52
2022/07/25 10:26:03;;;;;;;8.30;7.50;;;32.90;93.80;;;;;;5090030;28;20204;-52
2022/07/25 10:28:41;;;;;;;8.63;7.90;;;33.00;93.70;;;;;;5068238;28;20299;-51
2022/07/25 10:31:22;;;;;;;8.80;8.00;;;32.90;93.20;;;;;;5089959;28;20207;-52
2022/07/25 10:33:57;;;;;;;8.20;7.50;;;32.90;91.90;;;;;;5081303;28;20204;-53
2022/07/25 10:36:32;;;;;;;8.18;7.32;;;32.90;92.30;;;;;;5069735;28;20778;-52
2022/07/25 10:39:01;;;;;;;7.85;7.10;;;32.80;91.60;;;;;;5068775;28;20204;-51
2022/07/25 10:41:29;;;;;;;7.78;7.05;;;32.80;92.20;;;;;;5069476;28;20722;-53
2022/07/25 10:44:02;;;;;;;7.35;6.75;;;32.90;92.10;;;;;;5069080;28;20205;-53
2022/07/25 10:46:35;;;;;;;8.50;7.63;;;33.00;92.00;;;;;;5069122;28;20263;-53
2022/07/25 10:49:06;;;;;;;8.32;7.53;;;33.00;91.90;;;;;;5069197;28;20200;-53
2022/07/25 10:51:36;;;;;;;8.73;7.60;;;33.10;92.40;;;;;;5069238;28;20255;-53
2022/07/25 10:54:14;;;;;;;8.80;7.78;;;33.10;91.70;;;;;;5068287;28;20579;-53
2022/07/25 10:56:55;;;;;;;8.35;7.03;;;33.40;92.50;;;;;;5068787;28;20232;-53
2022/07/25 10:59:34;;;;;;;8.10;6.90;;;33.50;92.40;;;;;;5068922;28;20243;-52
2022/07/25 11:02:02;;;;;;;8.43;7.65;;;33.50;92.20;;;;;;5071105;28;20216;-51
2022/07/25 11:04:33;;;;;;;8.23;6.97;;;33.30;91.30;;;;;;5069681;28;20597;-52
2022/07/25 11:07:08;;;;;;;8.10;7.38;;;33.00;91.90;;;;;;5068223;28;20233;-53
2022/07/25 11:09:38;;;;;;;10.77;7.22;;;33.00;91.10;;;;;;5068772;28;20197;-53
2022/07/25 11:12:07;;;;;;;7.78;7.15;;;33.10;92.00;;;;;;5069040;28;20263;-52
2022/07/25 11:14:37;;;;;;;7.45;6.85;;;33.20;91.50;;;;;;5069160;28;20346;-53
2022/07/25 11:17:13;;;;;;;8.35;7.30;;;33.50;91.70;;;;;;5079667;28;20224;-52
2022/07/25 11:19:45;;;;;;;7.70;6.82;;;33.70;92.30;;;;;;5089466;28;20234;-52
2022/07/25 11:22:13;;;;;;;7.57;6.88;;;33.60;90.70;;;;;;5065436;28;20209;-53
2022/07/25 11:24:43;;;;;;;8.02;7.20;;;33.60;91.10;;;;;;5078615;28;20749;-53
2022/07/25 11:27:13;;;;;;;8.55;7.55;;;33.60;91.30;;;;;;5088754;28;20232;-52
2022/07/25 11:29:41;;;;;;;7.85;7.25;;;33.60;90.60;;;;;;5088584;28;20220;-52
2022/07/25 11:32:11;;;;;;;8.20;7.05;;;33.70;91.70;;;;;;5085313;28;20208;-53
2022/07/25 11:34:44;;;;;;;7.88;7.18;;;33.80;90.20;;;;;;5089427;28;20239;-52
2022/07/25 11:37:13;;;;;;;7.65;6.85;;;34.00;90.80;;;;;;5087870;28;20228;-52
2022/07/25 11:39:43;;;;;;;10.90;7.15;;;34.00;90.60;;;;;;5089180;28;20230;-52
2022/07/25 11:42:15;;;;;;;8.75;7.88;;;34.00;90.70;;;;;;5088821;28;20215;-53
2022/07/25 11:44:44;;;;;;;9.65;7.07;;;34.10;90.00;;;;;;5088660;28;20223;-51
2022/07/25 11:47:26;;;;;;;8.13;7.28;;;34.20;91.00;;;;;;5084989;28;20239;-53
2022/07/25 11:49:59;;;;;;;8.15;7.45;;;33.80;90.40;;;;;;5089183;28;20853;-52
2022/07/25 11:52:29;;;;;;;8.18;6.78;;;33.50;90.00;;;;;;5088431;28;20230;-53
2022/07/25 11:54:59;;;;;;;10.00;6.93;;;33.20;90.40;;;;;;5088785;28;20716;-53
2022/07/25 11:57:29;;;;;;;7.32;6.60;;;33.00;90.70;;;;;;5089133;28;20224;-51
2022/07/25 11:59:58;;;;;;;9.02;6.45;;;32.90;90.50;;;;;;5089372;28;20208;-52
2022/07/25 12:02:29;;;;;;;10.02;7.20;;;32.80;89.50;;;;;;5079200;28;20484;-52
2022/07/25 12:05:01;;;;;;;8.20;7.40;;;32.90;88.70;;;;;;5060815;28;20210;-53
2022/07/25 12:07:37;;;;;;;7.82;7.03;;;33.10;92.20;;;;;;5081278;28;20714;-53
2022/07/25 12:10:08;;;;;;;8.30;6.72;;;33.40;90.80;;;;;;5061548;28;20196;-52
2022/07/25 12:12:48;;;;;;;7.50;6.40;;;33.50;89.40;;;;;;5092446;28;20258;-53
2022/07/25 12:15:19;;;;;;;7.32;6.63;;;33.50;87.30;;;;;;5084125;28;20198;-52
2022/07/25 12:17:47;;;;;;;8.23;6.63;;;33.30;87.60;;;;;;5074107;28;20220;-53
2022/07/25 12:20:19;;;;;;;8.25;7.07;;;33.20;87.70;;;;;;5071631;28;20248;-52
2022/07/25 12:22:48;;;;;;;10.30;7.30;;;32.90;87.30;;;;;;5071263;28;20628;-52
2022/07/25 12:25:17;;;;;;;7.85;7.05;;;32.70;88.40;;;;;;5072456;28;20631;-52
2022/07/25 12:27:45;;;;;;;9.85;7.47;;;32.50;88.50;;;;;;5072227;28;20861;-53
2022/07/25 12:30:13;;;;;;;8.30;7.25;;;32.20;89.20;;;;;;5080807;28;20223;-52
2022/07/25 12:32:42;;;;;;;8.30;7.55;;;32.10;90.10;;;;;;5064858;28;20274;-52
2022/07/25 12:35:13;;;;;;;8.07;7.20;;;31.90;90.10;;;;;;5091419;28;20265;-52
2022/07/25 12:37:43;;;;;;;8.15;7.28;;;31.80;90.70;;;;;;5090704;28;20250;-52
2022/07/25 12:40:13;;;;;;;7.90;7.25;;;31.70;90.00;;;;;;5091333;28;20240;-52
2022/07/25 12:42:41;;;;;;;10.25;6.97;;;31.50;90.30;;;;;;5091459;28;20726;-52
2022/07/25 12:45:11;;;;;;;7.20;6.50;;;31.40;91.50;;;;;;5091240;28;21081;-52
2022/07/25 12:47:39;;;;;;;8.15;6.80;;;31.20;92.50;;;;;;5089288;28;20231;-53
2022/07/25 12:50:08;;;;;;;11.90;6.82;;;31.10;92.90;;;;;;5091957;28;20735;-52
2022/07/25 12:52:37;;;;;;;10.10;6.78;;;30.90;93.00;;;;;;5091252;28;20208;-52
2022/07/25 12:55:09;;;;;;;7.45;6.85;;;30.70;93.70;;;;;;5091666;28;20208;-53
2022/07/25 12:57:38;;;;;;;7.75;7.05;;;30.60;94.10;;;;;;5088697;28;20272;-52
2022/07/25 13:00:09;;;;;;;7.50;6.80;;;30.50;93.80;;;;;;5065418;28;20263;-52